EWG4M LEPA-LOWS
Flight info
| Callsign | EWG4M |
|---|---|
| Flight time | N/A |
| Altitude | 32000 |
| Route | MEROS DCT LAPIT DCT CHELY DCT LUMAS/N0430F340 DCT UNANA/N0421F300 DCT STP/N0436F380 DCT RAPED DCT PIGOS DCT EKSID DCT NOSTA DCT NOPMU DCT BORMI/N0438F370 DCT RASTA RASTA2R |
| Aircraft | A320/M-SDE3FGHIRWY/LB1 |
Departure
| Time | 2026-05-01 15:02 |
|---|---|
| Airport | Palma de Mallorca Airport (LEPA) |
Arrival
| Time | N/A |
|---|---|
| Airport | Salzburg Airport (LOWS) |
| Time | Latitude | Longitude | Altitude | Speed | Heading |
|---|---|---|---|---|---|
| 2026-05-01 14:53 | 39.55080 | 2.73819 | 33 ft | 0 kts | 149° |
| 2026-05-01 14:56 | 39.55074 | 2.73823 | 38 ft | 5 kts | 149° |
| 2026-05-01 14:56 | 39.55061 | 2.73833 | 37 ft | 9 kts | 149° |
| 2026-05-01 14:57 | 39.54998 | 2.73882 | 38 ft | 12 kts | 149° |
| 2026-05-01 14:57 | 39.54830 | 2.73998 | 38 ft | 15 kts | 187° |
| 2026-05-01 14:57 | 39.54749 | 2.73952 | 38 ft | 13 kts | 157° |
| 2026-05-01 14:58 | 39.54678 | 2.73893 | 38 ft | 15 kts | 239° |
| 2026-05-01 14:58 | 39.54625 | 2.73781 | 38 ft | 14 kts | 238° |
| 2026-05-01 14:58 | 39.54576 | 2.73677 | 38 ft | 15 kts | 239° |
| 2026-05-01 14:58 | 39.54520 | 2.73559 | 38 ft | 17 kts | 238° |
| 2026-05-01 14:59 | 39.54446 | 2.73403 | 38 ft | 21 kts | 238° |
| 2026-05-01 14:59 | 39.54372 | 2.73246 | 38 ft | 20 kts | 239° |
| 2026-05-01 14:59 | 39.54302 | 2.73097 | 38 ft | 19 kts | 238° |
| 2026-05-01 14:59 | 39.54236 | 2.72959 | 37 ft | 16 kts | 238° |
| 2026-05-01 15:00 | 39.54153 | 2.72978 | 38 ft | 0 kts | 94° |
| 2026-05-01 15:00 | 39.54151 | 2.73038 | 38 ft | 15 kts | 91° |
| 2026-05-01 15:01 | 39.54146 | 2.73186 | 38 ft | 17 kts | 92° |
| 2026-05-01 15:01 | 39.54219 | 2.73370 | 38 ft | 45 kts | 59° |
| 2026-05-01 15:01 | 39.54511 | 2.73987 | 36 ft | 113 kts | 57° |
| 2026-05-01 15:01 | 39.55010 | 2.75041 | 71 ft | 159 kts | 64° |
| 2026-05-01 15:02 | 39.55581 | 2.76293 | 648 ft | 162 kts | 60° |
| 2026-05-01 15:02 | 39.55968 | 2.77139 | 1175 ft | 161 kts | 63° |
| 2026-05-01 15:02 | 39.56741 | 2.78813 | 2057 ft | 169 kts | 62° |
| 2026-05-01 15:02 | 39.57374 | 2.80208 | 2452 ft | 191 kts | 62° |
| 2026-05-01 15:03 | 39.58080 | 2.81762 | 2910 ft | 206 kts | 62° |
| 2026-05-01 15:03 | 39.58823 | 2.83391 | 3553 ft | 213 kts | 61° |
| 2026-05-01 15:03 | 39.59578 | 2.85041 | 4400 ft | 214 kts | 61° |
| 2026-05-01 15:03 | 39.60343 | 2.86713 | 5163 ft | 218 kts | 61° |
| 2026-05-01 15:04 | 39.61122 | 2.88420 | 5888 ft | 222 kts | 61° |
| 2026-05-01 15:04 | 39.61903 | 2.90133 | 6609 ft | 225 kts | 62° |
| 2026-05-01 15:04 | 39.62707 | 2.91930 | 7113 ft | 240 kts | 62° |
| 2026-05-01 15:04 | 39.63567 | 2.93910 | 7473 ft | 264 kts | 62° |
| 2026-05-01 15:05 | 39.64489 | 2.96054 | 8057 ft | 278 kts | 62° |
| 2026-05-01 15:05 | 39.65446 | 2.98272 | 8824 ft | 285 kts | 61° |
| 2026-05-01 15:05 | 39.66428 | 3.00540 | 9618 ft | 291 kts | 60° |
| 2026-05-01 15:05 | 39.67430 | 3.02858 | 10371 ft | 299 kts | 60° |
| 2026-05-01 15:06 | 39.68491 | 3.05309 | 10664 ft | 323 kts | 60° |
| 2026-05-01 15:06 | 39.69622 | 3.07922 | 11102 ft | 338 kts | 60° |
| 2026-05-01 15:06 | 39.70786 | 3.10606 | 11806 ft | 343 kts | 60° |
| 2026-05-01 15:06 | 39.71947 | 3.13288 | 12569 ft | 347 kts | 61° |
| 2026-05-01 15:07 | 39.73133 | 3.16037 | 13314 ft | 351 kts | 61° |
| 2026-05-01 15:07 | 39.74330 | 3.18824 | 14049 ft | 355 kts | 61° |
| 2026-05-01 15:07 | 39.75541 | 3.21642 | 14700 ft | 359 kts | 61° |
| 2026-05-01 15:07 | 39.76766 | 3.24491 | 15359 ft | 363 kts | 60° |
| 2026-05-01 15:08 | 39.78178 | 3.27220 | 15995 ft | 366 kts | 50° |
| 2026-05-01 15:08 | 39.79852 | 3.29731 | 16657 ft | 369 kts | 48° |
| 2026-05-01 15:08 | 39.81543 | 3.32258 | 17301 ft | 372 kts | 48° |
| 2026-05-01 15:08 | 39.83251 | 3.34813 | 17938 ft | 376 kts | 48° |
| 2026-05-01 15:09 | 39.84973 | 3.37396 | 18563 ft | 379 kts | 48° |
| 2026-05-01 15:09 | 39.86686 | 3.39969 | 19088 ft | 383 kts | 48° |
| 2026-05-01 15:09 | 39.88439 | 3.42605 | 19629 ft | 387 kts | 48° |
| 2026-05-01 15:09 | 39.90205 | 3.45262 | 20166 ft | 390 kts | 48° |
| 2026-05-01 15:10 | 39.91990 | 3.47950 | 20705 ft | 394 kts | 48° |
| 2026-05-01 15:10 | 39.95605 | 3.53405 | 21781 ft | 401 kts | 48° |
| 2026-05-01 15:10 | 39.97436 | 3.56169 | 22323 ft | 405 kts | 48° |
| 2026-05-01 15:11 | 39.99284 | 3.58961 | 22856 ft | 408 kts | 48° |
| 2026-05-01 15:11 | 40.03021 | 3.64623 | 23876 ft | 415 kts | 48° |
| 2026-05-01 15:11 | 40.04911 | 3.67484 | 24305 ft | 418 kts | 48° |
| 2026-05-01 15:12 | 40.06814 | 3.70364 | 24735 ft | 420 kts | 48° |
| 2026-05-01 15:12 | 40.10644 | 3.76187 | 25565 ft | 425 kts | 48° |
| 2026-05-01 15:12 | 40.12570 | 3.79125 | 25975 ft | 427 kts | 48° |
| 2026-05-01 15:13 | 40.18388 | 3.88002 | 27139 ft | 434 kts | 48° |
| 2026-05-01 15:14 | 40.22336 | 3.94023 | 27901 ft | 438 kts | 48° |
| 2026-05-01 15:14 | 40.24319 | 3.97059 | 28265 ft | 440 kts | 48° |
| 2026-05-01 15:14 | 40.28317 | 4.03186 | 28990 ft | 444 kts | 48° |
| 2026-05-01 15:15 | 40.32349 | 4.09368 | 29685 ft | 448 kts | 48° |
| 2026-05-01 15:15 | 40.36406 | 4.15619 | 30329 ft | 452 kts | 48° |
| 2026-05-01 15:16 | 40.40496 | 4.21939 | 30831 ft | 456 kts | 48° |
| 2026-05-01 15:16 | 40.44589 | 4.28281 | 31299 ft | 461 kts | 49° |
| 2026-05-01 15:17 | 40.49198 | 4.34105 | 31754 ft | 461 kts | 33° |
| 2026-05-01 15:18 | 40.57967 | 4.38551 | 32239 ft | 439 kts | 8° |
| 2026-05-01 15:19 | 40.69779 | 4.41381 | 32243 ft | 431 kts | 8° |
| 2026-05-01 15:19 | 40.78635 | 4.43508 | 32245 ft | 431 kts | 8° |
| 2026-05-01 15:20 | 40.87498 | 4.45653 | 32244 ft | 432 kts | 8° |
| 2026-05-01 15:21 | 40.93366 | 4.47081 | 32248 ft | 432 kts | 8° |
| 2026-05-01 15:21 | 40.99273 | 4.48517 | 32248 ft | 431 kts | 8° |
| 2026-05-01 15:22 | 41.08129 | 4.50653 | 32248 ft | 431 kts | 8° |
| 2026-05-01 15:22 | 41.14034 | 4.52087 | 32251 ft | 431 kts | 8° |
| 2026-05-01 15:23 | 41.19935 | 4.53526 | 32256 ft | 431 kts | 8° |
| 2026-05-01 15:23 | 41.25784 | 4.54958 | 32262 ft | 430 kts | 8° |
| 2026-05-01 15:24 | 41.31672 | 4.56399 | 32255 ft | 430 kts | 8° |
| 2026-05-01 15:24 | 41.37554 | 4.57843 | 32258 ft | 430 kts | 8° |
| 2026-05-01 15:25 | 41.43431 | 4.59280 | 32257 ft | 429 kts | 8° |
| 2026-05-01 15:25 | 41.49268 | 4.60716 | 32257 ft | 429 kts | 7° |
| 2026-05-01 15:26 | 41.55142 | 4.62165 | 32261 ft | 429 kts | 7° |
| 2026-05-01 15:26 | 41.61015 | 4.63613 | 32260 ft | 429 kts | 7° |
| 2026-05-01 15:27 | 41.66911 | 4.65075 | 32349 ft | 436 kts | 7° |
| 2026-05-01 15:27 | 41.69892 | 4.65988 | 32480 ft | 445 kts | 15° |
| 2026-05-01 15:28 | 41.75435 | 4.69771 | 32915 ft | 458 kts | 34° |
| 2026-05-01 15:28 | 41.77835 | 4.72586 | 33229 ft | 461 kts | 42° |
| 2026-05-01 15:28 | 41.80115 | 4.75605 | 33554 ft | 461 kts | 42° |
| 2026-05-01 15:29 | 41.84673 | 4.81628 | 34244 ft | 460 kts | 42° |
| 2026-05-01 15:29 | 41.86950 | 4.84637 | 34548 ft | 459 kts | 42° |
| 2026-05-01 15:29 | 41.91494 | 4.90646 | 35151 ft | 457 kts | 42° |
| 2026-05-01 15:30 | 41.95980 | 4.96600 | 35712 ft | 456 kts | 42° |
| 2026-05-01 15:31 | 42.04953 | 5.08560 | 36283 ft | 453 kts | 43° |
| 2026-05-01 15:31 | 42.09416 | 5.14527 | 36282 ft | 452 kts | 43° |
| 2026-05-01 15:32 | 42.18281 | 5.26413 | 36285 ft | 450 kts | 43° |
| 2026-05-01 15:34 | 42.31553 | 5.44311 | 36301 ft | 449 kts | 43° |